sensor_id;sensor_type;location;lat;lon;timestamp;P1;durP1;ratioP1;P2;durP2;ratioP2
2035;SDS011;23642;42.658;23.350;2023-02-21T00:01:41;100.40;;;93.40;;
2035;SDS011;23642;42.658;23.350;2023-02-21T00:04:25;101.60;;;94.90;;
2035;SDS011;23642;42.658;23.350;2023-02-21T00:07:09;97.90;;;91.27;;
2035;SDS011;23642;42.658;23.350;2023-02-21T00:09:54;100.67;;;94.00;;
2035;SDS011;23642;42.658;23.350;2023-02-21T00:12:39;99.57;;;92.87;;
2035;SDS011;23642;42.658;23.350;2023-02-21T00:15:24;101.27;;;93.83;;
2035;SDS011;23642;42.658;23.350;2023-02-21T00:18:08;102.33;;;94.80;;
2035;SDS011;23642;42.658;23.350;2023-02-21T00:20:52;101.30;;;94.20;;
2035;SDS011;23642;42.658;23.350;2023-02-21T00:23:35;101.97;;;95.03;;
2035;SDS011;23642;42.658;23.350;2023-02-21T00:26:20;98.57;;;91.97;;
2035;SDS011;23642;42.658;23.350;2023-02-21T00:29:06;100.10;;;93.60;;
2035;SDS011;23642;42.658;23.350;2023-02-21T00:31:51;100.83;;;94.23;;
2035;SDS011;23642;42.658;23.350;2023-02-21T00:34:35;97.20;;;90.60;;
2035;SDS011;23642;42.658;23.350;2023-02-21T00:37:19;99.47;;;92.77;;
2035;SDS011;23642;42.658;23.350;2023-02-21T00:40:03;101.63;;;94.93;;
2035;SDS011;23642;42.658;23.350;2023-02-21T00:42:48;99.37;;;92.77;;
2035;SDS011;23642;42.658;23.350;2023-02-21T00:45:34;101.07;;;94.10;;
2035;SDS011;23642;42.658;23.350;2023-02-21T00:48:18;101.90;;;94.97;;
2035;SDS011;23642;42.658;23.350;2023-02-21T00:51:03;99.83;;;93.23;;
2035;SDS011;23642;42.658;23.350;2023-02-21T00:53:47;99.60;;;93.10;;
2035;SDS011;23642;42.658;23.350;2023-02-21T00:56:31;103.07;;;95.33;;
2035;SDS011;23642;42.658;23.350;2023-02-21T00:59:15;101.23;;;94.43;;
2035;SDS011;23642;42.658;23.350;2023-02-21T01:02:01;99.33;;;92.87;;
2035;SDS011;23642;42.658;23.350;2023-02-21T01:04:45;98.83;;;92.03;;
2035;SDS011;23642;42.658;23.350;2023-02-21T01:07:29;99.40;;;92.80;;
2035;SDS011;23642;42.658;23.350;2023-02-21T01:10:13;102.30;;;95.40;;
2035;SDS011;23642;42.658;23.350;2023-02-21T01:12:58;97.53;;;90.93;;
2035;SDS011;23642;42.658;23.350;2023-02-21T01:15:41;99.07;;;92.53;;
2035;SDS011;23642;42.658;23.350;2023-02-21T01:18:27;100.07;;;93.47;;
2035;SDS011;23642;42.658;23.350;2023-02-21T01:21:12;99.53;;;93.03;;
2035;SDS011;23642;42.658;23.350;2023-02-21T01:23:57;101.67;;;94.97;;
2035;SDS011;23642;42.658;23.350;2023-02-21T01:26:42;100.40;;;93.60;;
2035;SDS011;23642;42.658;23.350;2023-02-21T01:29:25;98.63;;;91.90;;
2035;SDS011;23642;42.658;23.350;2023-02-21T01:32:09;100.33;;;93.93;;
2035;SDS011;23642;42.658;23.350;2023-02-21T01:34:55;101.23;;;94.63;;
2035;SDS011;23642;42.658;23.350;2023-02-21T01:37:40;100.53;;;93.73;;
2035;SDS011;23642;42.658;23.350;2023-02-21T01:40:24;99.70;;;93.03;;
2035;SDS011;23642;42.658;23.350;2023-02-21T01:43:12;102.63;;;96.03;;
2035;SDS011;23642;42.658;23.350;2023-02-21T01:45:57;101.17;;;94.57;;
2035;SDS011;23642;42.658;23.350;2023-02-21T01:48:41;102.20;;;95.30;;
2035;SDS011;23642;42.658;23.350;2023-02-21T01:51:30;100.93;;;94.47;;
2035;SDS011;23642;42.658;23.350;2023-02-21T01:54:20;102.47;;;95.50;;
2035;SDS011;23642;42.658;23.350;2023-02-21T01:57:05;99.63;;;93.07;;
2035;SDS011;23642;42.658;23.350;2023-02-21T01:59:50;100.70;;;94.10;;
2035;SDS011;23642;42.658;23.350;2023-02-21T02:02:39;100.37;;;93.63;;
2035;SDS011;23642;42.658;23.350;2023-02-21T02:05:29;100.50;;;93.70;;
2035;SDS011;23642;42.658;23.350;2023-02-21T02:08:16;100.20;;;93.50;;
2035;SDS011;23642;42.658;23.350;2023-02-21T02:11:05;100.50;;;94.03;;
2035;SDS011;23642;42.658;23.350;2023-02-21T02:14:03;99.60;;;93.00;;
2035;SDS011;23642;42.658;23.350;2023-02-21T02:16:44;100.43;;;94.00;;
2035;SDS011;23642;42.658;23.350;2023-02-21T02:19:23;97.13;;;90.67;;
2035;SDS011;23642;42.658;23.350;2023-02-21T02:28:09;98.77;;;92.40;;
2035;SDS011;23642;42.658;23.350;2023-02-21T02:30:58;100.53;;;94.03;;
2035;SDS011;23642;42.658;23.350;2023-02-21T02:37:03;98.47;;;92.17;;
2035;SDS011;23642;42.658;23.350;2023-02-21T02:39:38;97.83;;;91.53;;
2035;SDS011;23642;42.658;23.350;2023-02-21T02:42:09;96.97;;;90.60;;
2035;SDS011;23642;42.658;23.350;2023-02-21T02:44:43;101.80;;;95.13;;
2035;SDS011;23642;42.658;23.350;2023-02-21T02:47:16;99.43;;;92.93;;
2035;SDS011;23642;42.658;23.350;2023-02-21T02:49:47;99.70;;;93.20;;
2035;SDS011;23642;42.658;23.350;2023-02-21T02:52:18;98.30;;;92.00;;
2035;SDS011;23642;42.658;23.350;2023-02-21T02:54:54;98.77;;;92.03;;
2035;SDS011;23642;42.658;23.350;2023-02-21T02:57:23;99.40;;;93.10;;
2035;SDS011;23642;42.658;23.350;2023-02-21T02:59:50;100.37;;;93.87;;
2035;SDS011;23642;42.658;23.350;2023-02-21T03:02:27;101.10;;;94.70;;
2035;SDS011;23642;42.658;23.350;2023-02-21T03:05:25;97.90;;;91.60;;
2035;SDS011;23642;42.658;23.350;2023-02-21T03:08:07;99.43;;;93.03;;
2035;SDS011;23642;42.658;23.350;2023-02-21T03:10:42;100.90;;;94.50;;
2035;SDS011;23642;42.658;23.350;2023-02-21T03:13:20;100.87;;;94.47;;
2035;SDS011;23642;42.658;23.350;2023-02-21T03:15:53;100.30;;;93.90;;
2035;SDS011;23642;42.658;23.350;2023-02-21T03:18:25;99.17;;;92.57;;
2035;SDS011;23642;42.658;23.350;2023-02-21T03:20:56;101.33;;;94.90;;
2035;SDS011;23642;42.658;23.350;2023-02-21T03:23:29;103.13;;;96.43;;
2035;SDS011;23642;42.658;23.350;2023-02-21T03:25:58;98.87;;;92.47;;
2035;SDS011;23642;42.658;23.350;2023-02-21T03:28:28;99.87;;;93.37;;
2035;SDS011;23642;42.658;23.350;2023-02-21T03:30:58;102.47;;;95.60;;
2035;SDS011;23642;42.658;23.350;2023-02-21T03:33:27;105.13;;;97.53;;
2035;SDS011;23642;42.658;23.350;2023-02-21T03:35:54;101.63;;;94.87;;
2035;SDS011;23642;42.658;23.350;2023-02-21T03:38:27;100.60;;;94.10;;
2035;SDS011;23642;42.658;23.350;2023-02-21T03:40:55;100.63;;;94.23;;
2035;SDS011;23642;42.658;23.350;2023-02-21T03:43:22;100.90;;;94.20;;
2035;SDS011;23642;42.658;23.350;2023-02-21T03:45:48;102.87;;;96.30;;
2035;SDS011;23642;42.658;23.350;2023-02-21T03:48:16;102.37;;;95.33;;
2035;SDS011;23642;42.658;23.350;2023-02-21T03:50:42;99.23;;;92.37;;
2035;SDS011;23642;42.658;23.350;2023-02-21T03:53:09;100.43;;;93.93;;
2035;SDS011;23642;42.658;23.350;2023-02-21T03:55:38;103.77;;;96.47;;
2035;SDS011;23642;42.658;23.350;2023-02-21T03:58:04;100.43;;;94.00;;
2035;SDS011;23642;42.658;23.350;2023-02-21T04:00:31;99.63;;;93.33;;
2035;SDS011;23642;42.658;23.350;2023-02-21T04:02:59;99.03;;;92.53;;
2035;SDS011;23642;42.658;23.350;2023-02-21T04:05:25;100.70;;;94.20;;
2035;SDS011;23642;42.658;23.350;2023-02-21T04:07:52;102.90;;;96.30;;
2035;SDS011;23642;42.658;23.350;2023-02-21T04:10:19;103.17;;;96.33;;
2035;SDS011;23642;42.658;23.350;2023-02-21T04:12:47;101.43;;;94.83;;
2035;SDS011;23642;42.658;23.350;2023-02-21T04:15:13;103.63;;;96.27;;
2035;SDS011;23642;42.658;23.350;2023-02-21T04:17:40;103.00;;;96.23;;
2035;SDS011;23642;42.658;23.350;2023-02-21T04:20:07;105.67;;;98.87;;
2035;SDS011;23642;42.658;23.350;2023-02-21T04:22:35;104.47;;;97.57;;
2035;SDS011;23642;42.658;23.350;2023-02-21T04:25:02;104.07;;;96.87;;
2035;SDS011;23642;42.658;23.350;2023-02-21T04:27:28;102.10;;;95.40;;
2035;SDS011;23642;42.658;23.350;2023-02-21T04:29:56;104.10;;;97.40;;
2035;SDS011;23642;42.658;23.350;2023-02-21T04:32:23;102.90;;;96.10;;
2035;SDS011;23642;42.658;23.350;2023-02-21T04:34:50;102.73;;;96.03;;
2035;SDS011;23642;42.658;23.350;2023-02-21T04:37:16;106.73;;;99.53;;
2035;SDS011;23642;42.658;23.350;2023-02-21T04:39:43;106.50;;;99.23;;
2035;SDS011;23642;42.658;23.350;2023-02-21T04:42:10;105.50;;;98.40;;
2035;SDS011;23642;42.658;23.350;2023-02-21T04:44:37;107.53;;;100.23;;
2035;SDS011;23642;42.658;23.350;2023-02-21T04:47:05;105.23;;;98.33;;
2035;SDS011;23642;42.658;23.350;2023-02-21T04:49:31;104.57;;;97.80;;
2035;SDS011;23642;42.658;23.350;2023-02-21T04:51:58;107.03;;;99.60;;
2035;SDS011;23642;42.658;23.350;2023-02-21T04:54:25;109.67;;;101.47;;
2035;SDS011;23642;42.658;23.350;2023-02-21T04:56:52;105.83;;;99.03;;
2035;SDS011;23642;42.658;23.350;2023-02-21T04:59:18;104.97;;;98.07;;
2035;SDS011;23642;42.658;23.350;2023-02-21T05:01:45;103.93;;;97.13;;
2035;SDS011;23642;42.658;23.350;2023-02-21T05:04:13;108.87;;;101.33;;
2035;SDS011;23642;42.658;23.350;2023-02-21T05:06:40;105.40;;;98.33;;
2035;SDS011;23642;42.658;23.350;2023-02-21T05:09:07;107.67;;;100.30;;
2035;SDS011;23642;42.658;23.350;2023-02-21T05:11:34;105.23;;;97.77;;
2035;SDS011;23642;42.658;23.350;2023-02-21T05:14:00;107.50;;;100.20;;
2035;SDS011;23642;42.658;23.350;2023-02-21T05:16:27;106.57;;;99.47;;
2035;SDS011;23642;42.658;23.350;2023-02-21T05:18:54;107.23;;;99.70;;
2035;SDS011;23642;42.658;23.350;2023-02-21T05:21:22;106.00;;;98.40;;
2035;SDS011;23642;42.658;23.350;2023-02-21T05:23:49;109.40;;;101.07;;
2035;SDS011;23642;42.658;23.350;2023-02-21T05:26:23;106.03;;;98.73;;
2035;SDS011;23642;42.658;23.350;2023-02-21T05:28:51;106.40;;;98.90;;
2035;SDS011;23642;42.658;23.350;2023-02-21T05:31:18;106.07;;;98.57;;
2035;SDS011;23642;42.658;23.350;2023-02-21T05:33:45;105.37;;;98.30;;
2035;SDS011;23642;42.658;23.350;2023-02-21T05:36:12;107.87;;;100.27;;
2035;SDS011;23642;42.658;23.350;2023-02-21T05:38:47;108.17;;;100.70;;
2035;SDS011;23642;42.658;23.350;2023-02-21T05:41:15;109.60;;;102.20;;
2035;SDS011;23642;42.658;23.350;2023-02-21T05:43:43;110.17;;;101.77;;
2035;SDS011;23642;42.658;23.350;2023-02-21T05:46:18;108.47;;;100.67;;
2035;SDS011;23642;42.658;23.350;2023-02-21T05:48:47;110.20;;;102.63;;
2035;SDS011;23642;42.658;23.350;2023-02-21T05:51:16;110.77;;;102.70;;
2035;SDS011;23642;42.658;23.350;2023-02-21T05:53:43;110.37;;;102.47;;
2035;SDS011;23642;42.658;23.350;2023-02-21T05:56:12;107.53;;;99.73;;
2035;SDS011;23642;42.658;23.350;2023-02-21T05:58:39;109.90;;;102.00;;
2035;SDS011;23642;42.658;23.350;2023-02-21T06:01:06;112.30;;;103.83;;
2035;SDS011;23642;42.658;23.350;2023-02-21T06:03:34;114.00;;;105.40;;
2035;SDS011;23642;42.658;23.350;2023-02-21T06:06:01;111.10;;;102.70;;
2035;SDS011;23642;42.658;23.350;2023-02-21T06:08:28;111.73;;;103.90;;
2035;SDS011;23642;42.658;23.350;2023-02-21T06:10:55;110.53;;;103.10;;
2035;SDS011;23642;42.658;23.350;2023-02-21T06:13:23;110.77;;;102.53;;
2035;SDS011;23642;42.658;23.350;2023-02-21T06:15:50;111.57;;;104.10;;
2035;SDS011;23642;42.658;23.350;2023-02-21T06:18:16;112.60;;;104.90;;
2035;SDS011;23642;42.658;23.350;2023-02-21T06:20:43;112.17;;;104.60;;
2035;SDS011;23642;42.658;23.350;2023-02-21T06:23:10;109.20;;;101.67;;
2035;SDS011;23642;42.658;23.350;2023-02-21T06:25:36;111.20;;;103.77;;
2035;SDS011;23642;42.658;23.350;2023-02-21T06:28:03;111.07;;;103.47;;
2035;SDS011;23642;42.658;23.350;2023-02-21T06:30:34;113.70;;;105.90;;
2035;SDS011;23642;42.658;23.350;2023-02-21T06:33:01;115.00;;;107.00;;
2035;SDS011;23642;42.658;23.350;2023-02-21T06:35:28;111.30;;;103.70;;
2035;SDS011;23642;42.658;23.350;2023-02-21T06:37:55;111.73;;;103.83;;
2035;SDS011;23642;42.658;23.350;2023-02-21T06:40:22;112.90;;;102.73;;
2035;SDS011;23642;42.658;23.350;2023-02-21T06:42:48;112.63;;;104.90;;
2035;SDS011;23642;42.658;23.350;2023-02-21T06:45:15;112.83;;;104.60;;
2035;SDS011;23642;42.658;23.350;2023-02-21T06:47:43;112.13;;;104.43;;
2035;SDS011;23642;42.658;23.350;2023-02-21T06:50:10;110.03;;;102.80;;
2035;SDS011;23642;42.658;23.350;2023-02-21T06:52:37;112.73;;;104.80;;
2035;SDS011;23642;42.658;23.350;2023-02-21T06:55:06;110.20;;;101.90;;
2035;SDS011;23642;42.658;23.350;2023-02-21T06:57:33;110.37;;;102.97;;
2035;SDS011;23642;42.658;23.350;2023-02-21T06:59:59;112.67;;;105.37;;
2035;SDS011;23642;42.658;23.350;2023-02-21T07:02:26;111.37;;;103.57;;
2035;SDS011;23642;42.658;23.350;2023-02-21T07:04:54;111.93;;;104.20;;
2035;SDS011;23642;42.658;23.350;2023-02-21T07:07:21;112.97;;;105.27;;
2035;SDS011;23642;42.658;23.350;2023-02-21T07:09:47;115.50;;;107.53;;
2035;SDS011;23642;42.658;23.350;2023-02-21T07:12:14;112.57;;;104.43;;
2035;SDS011;23642;42.658;23.350;2023-02-21T07:14:41;113.07;;;104.80;;
2035;SDS011;23642;42.658;23.350;2023-02-21T07:17:07;118.40;;;108.23;;
2035;SDS011;23642;42.658;23.350;2023-02-21T07:19:34;115.90;;;106.30;;
2035;SDS011;23642;42.658;23.350;2023-02-21T07:22:04;113.80;;;105.93;;
2035;SDS011;23642;42.658;23.350;2023-02-21T07:24:31;113.30;;;105.30;;
2035;SDS011;23642;42.658;23.350;2023-02-21T07:26:58;115.37;;;106.00;;
2035;SDS011;23642;42.658;23.350;2023-02-21T07:29:25;114.60;;;106.70;;
2035;SDS011;23642;42.658;23.350;2023-02-21T07:31:51;116.40;;;108.00;;
2035;SDS011;23642;42.658;23.350;2023-02-21T07:34:19;119.60;;;110.70;;
2035;SDS011;23642;42.658;23.350;2023-02-21T07:36:47;120.80;;;112.47;;
2035;SDS011;23642;42.658;23.350;2023-02-21T07:39:15;118.10;;;109.90;;
2035;SDS011;23642;42.658;23.350;2023-02-21T07:41:42;114.67;;;105.87;;
2035;SDS011;23642;42.658;23.350;2023-02-21T07:44:09;114.13;;;105.50;;
2035;SDS011;23642;42.658;23.350;2023-02-21T07:46:35;113.63;;;106.20;;
2035;SDS011;23642;42.658;23.350;2023-02-21T07:49:03;115.50;;;107.57;;
2035;SDS011;23642;42.658;23.350;2023-02-21T07:51:30;121.23;;;113.03;;
2035;SDS011;23642;42.658;23.350;2023-02-21T07:53:57;119.67;;;111.50;;
2035;SDS011;23642;42.658;23.350;2023-02-21T07:56:25;122.13;;;113.20;;
2035;SDS011;23642;42.658;23.350;2023-02-21T07:58:51;118.17;;;110.13;;
2035;SDS011;23642;42.658;23.350;2023-02-21T08:01:20;117.53;;;109.40;;
2035;SDS011;23642;42.658;23.350;2023-02-21T08:03:48;117.00;;;108.53;;
2035;SDS011;23642;42.658;23.350;2023-02-21T08:06:15;116.73;;;108.50;;
2035;SDS011;23642;42.658;23.350;2023-02-21T08:08:43;116.50;;;108.20;;
2035;SDS011;23642;42.658;23.350;2023-02-21T08:11:10;119.57;;;111.17;;
2035;SDS011;23642;42.658;23.350;2023-02-21T08:13:38;119.30;;;109.80;;
2035;SDS011;23642;42.658;23.350;2023-02-21T08:16:05;120.10;;;111.70;;
2035;SDS011;23642;42.658;23.350;2023-02-21T08:18:32;119.07;;;110.37;;
2035;SDS011;23642;42.658;23.350;2023-02-21T08:21:00;118.73;;;110.40;;
2035;SDS011;23642;42.658;23.350;2023-02-21T08:23:26;121.77;;;112.80;;
2035;SDS011;23642;42.658;23.350;2023-02-21T08:25:53;121.50;;;111.83;;
2035;SDS011;23642;42.658;23.350;2023-02-21T08:28:20;117.67;;;109.60;;
2035;SDS011;23642;42.658;23.350;2023-02-21T08:30:50;120.80;;;112.70;;
2035;SDS011;23642;42.658;23.350;2023-02-21T08:33:25;122.40;;;113.60;;
2035;SDS011;23642;42.658;23.350;2023-02-21T08:35:51;119.07;;;111.17;;
2035;SDS011;23642;42.658;23.350;2023-02-21T08:38:20;115.30;;;107.27;;
2035;SDS011;23642;42.658;23.350;2023-02-21T08:40:47;122.73;;;114.03;;
2035;SDS011;23642;42.658;23.350;2023-02-21T08:43:15;121.70;;;112.83;;
2035;SDS011;23642;42.658;23.350;2023-02-21T08:45:42;119.63;;;111.30;;
2035;SDS011;23642;42.658;23.350;2023-02-21T08:48:11;116.70;;;108.17;;
2035;SDS011;23642;42.658;23.350;2023-02-21T08:50:38;116.17;;;107.77;;
2035;SDS011;23642;42.658;23.350;2023-02-21T08:53:06;115.00;;;106.90;;
2035;SDS011;23642;42.658;23.350;2023-02-21T08:55:33;115.40;;;107.13;;
2035;SDS011;23642;42.658;23.350;2023-02-21T08:58:00;118.47;;;109.87;;
2035;SDS011;23642;42.658;23.350;2023-02-21T09:00:28;118.97;;;110.23;;
2035;SDS011;23642;42.658;23.350;2023-02-21T09:02:55;115.07;;;107.20;;
2035;SDS011;23642;42.658;23.350;2023-02-21T09:05:27;117.97;;;109.47;;
2035;SDS011;23642;42.658;23.350;2023-02-21T09:07:57;117.63;;;108.77;;
2035;SDS011;23642;42.658;23.350;2023-02-21T09:10:26;115.53;;;107.27;;
2035;SDS011;23642;42.658;23.350;2023-02-21T09:12:54;119.27;;;110.90;;
2035;SDS011;23642;42.658;23.350;2023-02-21T09:15:21;121.97;;;112.33;;
2035;SDS011;23642;42.658;23.350;2023-02-21T09:17:49;115.47;;;107.27;;
2035;SDS011;23642;42.658;23.350;2023-02-21T09:20:21;114.80;;;106.77;;
2035;SDS011;23642;42.658;23.350;2023-02-21T09:22:51;115.50;;;107.70;;
2035;SDS011;23642;42.658;23.350;2023-02-21T09:25:19;115.37;;;106.90;;
2035;SDS011;23642;42.658;23.350;2023-02-21T09:27:52;119.40;;;110.73;;
2035;SDS011;23642;42.658;23.350;2023-02-21T09:30:20;115.60;;;108.17;;
2035;SDS011;23642;42.658;23.350;2023-02-21T09:32:51;116.07;;;108.33;;
2035;SDS011;23642;42.658;23.350;2023-02-21T09:35:18;112.13;;;104.50;;
2035;SDS011;23642;42.658;23.350;2023-02-21T09:37:45;116.00;;;107.40;;
2035;SDS011;23642;42.658;23.350;2023-02-21T09:40:18;117.50;;;108.43;;
2035;SDS011;23642;42.658;23.350;2023-02-21T09:42:57;116.23;;;107.17;;
2035;SDS011;23642;42.658;23.350;2023-02-21T09:45:26;121.73;;;113.00;;
2035;SDS011;23642;42.658;23.350;2023-02-21T09:48:04;119.70;;;110.67;;
2035;SDS011;23642;42.658;23.350;2023-02-21T09:50:52;117.23;;;108.70;;
2035;SDS011;23642;42.658;23.350;2023-02-21T09:53:35;114.70;;;106.70;;
2035;SDS011;23642;42.658;23.350;2023-02-21T09:56:06;115.80;;;107.80;;
2035;SDS011;23642;42.658;23.350;2023-02-21T09:58:38;112.97;;;104.47;;
2035;SDS011;23642;42.658;23.350;2023-02-21T10:01:12;115.03;;;106.40;;
2035;SDS011;23642;42.658;23.350;2023-02-21T10:03:48;118.28;;;109.82;;
2035;SDS011;23642;42.658;23.350;2023-02-21T10:06:22;118.10;;;109.53;;
2035;SDS011;23642;42.658;23.350;2023-02-21T10:08:58;114.33;;;106.50;;
2035;SDS011;23642;42.658;23.350;2023-02-21T10:11:35;113.20;;;105.17;;
2035;SDS011;23642;42.658;23.350;2023-02-21T10:14:12;113.93;;;105.60;;
2035;SDS011;23642;42.658;23.350;2023-02-21T10:16:51;113.77;;;105.93;;
2035;SDS011;23642;42.658;23.350;2023-02-21T10:19:22;114.07;;;106.30;;
2035;SDS011;23642;42.658;23.350;2023-02-21T10:21:55;115.33;;;106.50;;
2035;SDS011;23642;42.658;23.350;2023-02-21T10:24:24;114.97;;;106.97;;
2035;SDS011;23642;42.658;23.350;2023-02-21T10:26:56;116.57;;;108.93;;
2035;SDS011;23642;42.658;23.350;2023-02-21T10:29:29;112.47;;;104.87;;
2035;SDS011;23642;42.658;23.350;2023-02-21T10:32:04;115.07;;;107.23;;
2035;SDS011;23642;42.658;23.350;2023-02-21T10:34:31;113.13;;;105.20;;
2035;SDS011;23642;42.658;23.350;2023-02-21T10:37:02;113.70;;;106.20;;
2035;SDS011;23642;42.658;23.350;2023-02-21T10:39:38;113.10;;;105.37;;
2035;SDS011;23642;42.658;23.350;2023-02-21T10:42:17;111.83;;;104.17;;
2035;SDS011;23642;42.658;23.350;2023-02-21T10:44:51;113.80;;;106.50;;
2035;SDS011;23642;42.658;23.350;2023-02-21T10:47:22;114.00;;;106.47;;
2035;SDS011;23642;42.658;23.350;2023-02-21T10:49:59;109.87;;;102.13;;
2035;SDS011;23642;42.658;23.350;2023-02-21T10:52:29;111.53;;;104.17;;
2035;SDS011;23642;42.658;23.350;2023-02-21T10:55:02;110.87;;;103.67;;
2035;SDS011;23642;42.658;23.350;2023-02-21T10:57:37;108.70;;;101.67;;
2035;SDS011;23642;42.658;23.350;2023-02-21T11:00:09;109.13;;;102.23;;
2035;SDS011;23642;42.658;23.350;2023-02-21T11:02:45;108.67;;;101.87;;
2035;SDS011;23642;42.658;23.350;2023-02-21T11:05:20;112.90;;;105.90;;
2035;SDS011;23642;42.658;23.350;2023-02-21T11:07:56;111.70;;;104.70;;
2035;SDS011;23642;42.658;23.350;2023-02-21T11:10:29;115.17;;;108.07;;
2035;SDS011;23642;42.658;23.350;2023-02-21T11:13:03;108.37;;;101.03;;
2035;SDS011;23642;42.658;23.350;2023-02-21T11:15:32;108.83;;;101.83;;
2035;SDS011;23642;42.658;23.350;2023-02-21T11:18:05;112.03;;;105.00;;
2035;SDS011;23642;42.658;23.350;2023-02-21T11:20:38;113.70;;;106.50;;
2035;SDS011;23642;42.658;23.350;2023-02-21T11:23:16;113.30;;;105.90;;
2035;SDS011;23642;42.658;23.350;2023-02-21T11:25:47;107.17;;;99.90;;
2035;SDS011;23642;42.658;23.350;2023-02-21T11:28:20;106.50;;;99.03;;
2035;SDS011;23642;42.658;23.350;2023-02-21T11:30:49;105.60;;;98.90;;
2035;SDS011;23642;42.658;23.350;2023-02-21T11:33:28;106.40;;;99.50;;
2035;SDS011;23642;42.658;23.350;2023-02-21T11:36:05;106.27;;;99.57;;
2035;SDS011;23642;42.658;23.350;2023-02-21T11:38:36;104.10;;;97.60;;
2035;SDS011;23642;42.658;23.350;2023-02-21T11:41:14;105.90;;;99.30;;
2035;SDS011;23642;42.658;23.350;2023-02-21T11:43:46;105.77;;;99.17;;
2035;SDS011;23642;42.658;23.350;2023-02-21T11:46:31;103.50;;;96.60;;
2035;SDS011;23642;42.658;23.350;2023-02-21T11:49:04;106.10;;;99.30;;
2035;SDS011;23642;42.658;23.350;2023-02-21T11:51:42;105.37;;;98.07;;
2035;SDS011;23642;42.658;23.350;2023-02-21T11:54:12;107.50;;;100.60;;
2035;SDS011;23642;42.658;23.350;2023-02-21T11:56:45;108.80;;;101.60;;
2035;SDS011;23642;42.658;23.350;2023-02-21T11:59:24;105.27;;;98.40;;
2035;SDS011;23642;42.658;23.350;2023-02-21T12:02:12;106.97;;;100.27;;
2035;SDS011;23642;42.658;23.350;2023-02-21T12:05:05;104.53;;;97.83;;
2035;SDS011;23642;42.658;23.350;2023-02-21T12:07:45;107.97;;;101.07;;
2035;SDS011;23642;42.658;23.350;2023-02-21T12:10:23;103.03;;;96.60;;
2035;SDS011;23642;42.658;23.350;2023-02-21T12:13:16;105.83;;;98.83;;
2035;SDS011;23642;42.658;23.350;2023-02-21T12:15:56;106.53;;;99.93;;
2035;SDS011;23642;42.658;23.350;2023-02-21T12:18:46;105.03;;;98.53;;
2035;SDS011;23642;42.658;23.350;2023-02-21T12:21:26;106.20;;;99.60;;
2035;SDS011;23642;42.658;23.350;2023-02-21T12:24:11;105.67;;;98.77;;
2035;SDS011;23642;42.658;23.350;2023-02-21T12:26:53;111.20;;;104.30;;
2035;SDS011;23642;42.658;23.350;2023-02-21T12:29:28;108.67;;;101.97;;
2035;SDS011;23642;42.658;23.350;2023-02-21T12:32:14;108.03;;;101.33;;
2035;SDS011;23642;42.658;23.350;2023-02-21T12:34:54;104.67;;;97.93;;
2035;SDS011;23642;42.658;23.350;2023-02-21T12:37:35;102.50;;;95.87;;
2035;SDS011;23642;42.658;23.350;2023-02-21T12:40:17;102.70;;;96.10;;
2035;SDS011;23642;42.658;23.350;2023-02-21T12:42:56;103.80;;;97.20;;
2035;SDS011;23642;42.658;23.350;2023-02-21T12:45:39;102.67;;;96.20;;
2035;SDS011;23642;42.658;23.350;2023-02-21T12:48:18;102.50;;;96.10;;
2035;SDS011;23642;42.658;23.350;2023-02-21T12:50:55;100.07;;;93.67;;
2035;SDS011;23642;42.658;23.350;2023-02-21T12:53:28;102.27;;;95.90;;
2035;SDS011;23642;42.658;23.350;2023-02-21T12:56:01;102.90;;;96.27;;
2035;SDS011;23642;42.658;23.350;2023-02-21T12:58:35;104.83;;;98.33;;
2035;SDS011;23642;42.658;23.350;2023-02-21T13:01:09;100.70;;;94.20;;
2035;SDS011;23642;42.658;23.350;2023-02-21T13:03:47;102.90;;;96.20;;
2035;SDS011;23642;42.658;23.350;2023-02-21T13:06:22;99.93;;;93.73;;
2035;SDS011;23642;42.658;23.350;2023-02-21T13:08:56;102.33;;;95.43;;
2035;SDS011;23642;42.658;23.350;2023-02-21T13:11:34;104.43;;;97.83;;
2035;SDS011;23642;42.658;23.350;2023-02-21T13:14:07;102.87;;;96.27;;
2035;SDS011;23642;42.658;23.350;2023-02-21T13:16:37;102.17;;;95.57;;
2035;SDS011;23642;42.658;23.350;2023-02-21T13:19:07;108.93;;;102.20;;
2035;SDS011;23642;42.658;23.350;2023-02-21T13:21:43;107.63;;;100.87;;
2035;SDS011;23642;42.658;23.350;2023-02-21T13:24:35;102.30;;;95.80;;
2035;SDS011;23642;42.658;23.350;2023-02-21T13:30:11;102.37;;;96.03;;
2035;SDS011;23642;42.658;23.350;2023-02-21T13:32:39;104.90;;;98.20;;
2035;SDS011;23642;42.658;23.350;2023-02-21T13:35:19;101.47;;;94.87;;
2035;SDS011;23642;42.658;23.350;2023-02-21T13:37:50;101.87;;;95.53;;
2035;SDS011;23642;42.658;23.350;2023-02-21T13:40:20;103.17;;;95.77;;
2035;SDS011;23642;42.658;23.350;2023-02-21T13:43:00;99.93;;;93.73;;
2035;SDS011;23642;42.658;23.350;2023-02-21T13:45:30;100.10;;;93.70;;
2035;SDS011;23642;42.658;23.350;2023-02-21T13:48:20;102.87;;;95.97;;
2035;SDS011;23642;42.658;23.350;2023-02-21T13:50:51;104.20;;;97.70;;
2035;SDS011;23642;42.658;23.350;2023-02-21T13:53:21;101.93;;;95.53;;
2035;SDS011;23642;42.658;23.350;2023-02-21T13:58:39;102.50;;;96.07;;
2035;SDS011;23642;42.658;23.350;2023-02-21T14:10:16;100.60;;;94.00;;
2035;SDS011;23642;42.658;23.350;2023-02-21T14:12:57;100.47;;;93.97;;
2035;SDS011;23642;42.658;23.350;2023-02-21T14:15:36;99.80;;;93.17;;
2035;SDS011;23642;42.658;23.350;2023-02-21T14:18:12;100.33;;;93.70;;
2035;SDS011;23642;42.658;23.350;2023-02-21T14:20:44;100.65;;;94.25;;
2035;SDS011;23642;42.658;23.350;2023-02-21T14:23:18;98.90;;;92.50;;
2035;SDS011;23642;42.658;23.350;2023-02-21T14:25:56;100.53;;;93.72;;
2035;SDS011;23642;42.658;23.350;2023-02-21T14:34:20;102.73;;;96.13;;
2035;SDS011;23642;42.658;23.350;2023-02-21T14:36:49;99.50;;;93.20;;
2035;SDS011;23642;42.658;23.350;2023-02-21T14:39:19;99.53;;;92.97;;
2035;SDS011;23642;42.658;23.350;2023-02-21T14:41:50;99.13;;;92.60;;
2035;SDS011;23642;42.658;23.350;2023-02-21T14:44:34;100.97;;;94.57;;
2035;SDS011;23642;42.658;23.350;2023-02-21T14:47:20;100.63;;;94.17;;
2035;SDS011;23642;42.658;23.350;2023-02-21T14:50:03;101.70;;;95.10;;
2035;SDS011;23642;42.658;23.350;2023-02-21T14:52:45;103.23;;;96.80;;
2035;SDS011;23642;42.658;23.350;2023-02-21T14:55:48;100.60;;;94.00;;
2035;SDS011;23642;42.658;23.350;2023-02-21T15:01:37;97.65;;;91.18;;
2035;SDS011;23642;42.658;23.350;2023-02-21T15:04:22;100.77;;;94.17;;
2035;SDS011;23642;42.658;23.350;2023-02-21T15:07:10;98.37;;;92.13;;
2035;SDS011;23642;42.658;23.350;2023-02-21T15:09:42;97.80;;;91.27;;
2035;SDS011;23642;42.658;23.350;2023-02-21T15:12:14;98.80;;;92.60;;
2035;SDS011;23642;42.658;23.350;2023-02-21T15:14:49;102.03;;;95.33;;
2035;SDS011;23642;42.658;23.350;2023-02-21T15:17:19;100.90;;;94.40;;